createdAt,value
2022-07-29T00:01:21.949Z,18.04
2022-07-29T00:03:50.419Z,18.00
2022-07-29T00:06:19.006Z,17.96
2022-07-29T00:08:47.029Z,17.92
2022-07-29T00:11:15.264Z,17.88
2022-07-29T00:13:49.095Z,17.83
2022-07-29T00:16:19.087Z,17.79
2022-07-29T00:18:47.655Z,17.74
2022-07-29T00:21:15.680Z,17.71
2022-07-29T00:23:43.695Z,17.69
2022-07-29T00:26:11.670Z,17.66
2022-07-29T00:28:39.659Z,17.62
2022-07-29T00:31:09.087Z,17.60
2022-07-29T00:33:37.108Z,17.59
2022-07-29T00:36:04.692Z,17.60
2022-07-29T00:38:32.812Z,17.59
2022-07-29T00:41:00.840Z,17.58
2022-07-29T00:43:28.896Z,17.57
2022-07-29T00:45:56.915Z,17.54
2022-07-29T00:48:26.398Z,17.52
2022-07-29T00:50:54.713Z,17.48
2022-07-29T00:53:23.463Z,17.47
2022-07-29T00:55:52.458Z,17.44
2022-07-29T00:58:20.616Z,17.40
2022-07-29T01:00:48.653Z,17.35
2022-07-29T01:03:16.768Z,17.30
2022-07-29T01:05:50.244Z,17.27
2022-07-29T01:08:20.572Z,17.24
2022-07-29T01:10:49.132Z,17.22
2022-07-29T01:13:18.603Z,17.20
2022-07-29T01:15:51.956Z,17.18
2022-07-29T01:18:26.300Z,17.17
2022-07-29T01:21:15.640Z,17.16
2022-07-29T01:24:06.819Z,17.10
2022-07-29T01:26:43.357Z,17.07
2022-07-29T01:29:19.015Z,17.02
2022-07-29T01:31:59.315Z,16.98
2022-07-29T01:34:35.763Z,16.96
2022-07-29T01:37:09.870Z,16.94
2022-07-29T01:39:40.888Z,16.92
2022-07-29T01:42:17.264Z,16.92
2022-07-29T01:44:58.047Z,16.92
2022-07-29T01:47:33.431Z,16.90
2022-07-29T01:50:10.692Z,16.90
2022-07-29T01:52:43.846Z,16.89
2022-07-29T01:55:15.813Z,16.85
2022-07-29T01:57:48.654Z,16.85
2022-07-29T02:00:19.556Z,16.83
2022-07-29T02:02:50.010Z,16.82
2022-07-29T02:05:21.510Z,16.81
2022-07-29T02:07:50.627Z,16.79
2022-07-29T02:10:25.829Z,16.76
2022-07-29T02:12:56.238Z,16.74
2022-07-29T02:15:27.620Z,16.70
2022-07-29T02:18:00.460Z,16.66
2022-07-29T02:20:29.907Z,16.62
2022-07-29T02:22:59.434Z,16.57
2022-07-29T02:25:37.172Z,16.53
2022-07-29T02:28:07.944Z,16.50
2022-07-29T02:30:41.283Z,16.47
2022-07-29T02:33:10.913Z,16.45
2022-07-29T02:35:40.694Z,16.46
2022-07-29T02:38:28.192Z,16.46
2022-07-29T02:40:58.073Z,16.45
2022-07-29T02:43:28.011Z,16.43
2022-07-29T02:45:58.760Z,16.41
2022-07-29T02:48:38.519Z,16.44
2022-07-29T02:51:12.729Z,16.44
2022-07-29T02:54:04.405Z,16.44
2022-07-29T02:56:38.583Z,16.42
2022-07-29T02:59:11.730Z,16.41
2022-07-29T03:01:44.652Z,16.41
2022-07-29T03:04:15.418Z,16.42
2022-07-29T03:06:45.435Z,16.41
2022-07-29T03:09:15.453Z,16.42
2022-07-29T03:11:49.590Z,16.42
2022-07-29T03:14:20.603Z,16.44
2022-07-29T03:16:51.203Z,16.45
2022-07-29T03:19:19.617Z,16.45
2022-07-29T03:21:47.906Z,16.44
2022-07-29T03:24:28.086Z,16.47
2022-07-29T03:26:57.429Z,16.45
2022-07-29T03:29:25.749Z,16.44
2022-07-29T03:32:08.352Z,16.44
2022-07-29T03:34:38.714Z,16.45
2022-07-29T03:37:07.977Z,16.46
2022-07-29T03:39:42.166Z,16.46
2022-07-29T03:42:14.131Z,16.47
2022-07-29T03:44:45.071Z,16.47
2022-07-29T03:47:16.620Z,16.48
2022-07-29T03:49:46.754Z,16.48
2022-07-29T03:52:15.118Z,16.46
2022-07-29T03:54:43.257Z,16.45
2022-07-29T03:57:13.620Z,16.43
2022-07-29T03:59:42.240Z,16.42
2022-07-29T04:02:14.697Z,16.40
2022-07-29T04:04:45.013Z,16.37
2022-07-29T04:07:14.763Z,16.35
2022-07-29T04:09:43.186Z,16.35
2022-07-29T04:12:11.981Z,16.35
2022-07-29T04:14:40.321Z,16.33
2022-07-29T04:17:08.855Z,16.35
2022-07-29T04:19:36.891Z,16.34
2022-07-29T04:22:06.537Z,16.34
2022-07-29T04:24:34.518Z,16.34
2022-07-29T04:27:02.516Z,16.34
2022-07-29T04:29:30.467Z,16.33
2022-07-29T04:31:58.449Z,16.33
2022-07-29T04:34:27.987Z,16.33
2022-07-29T04:36:56.434Z,16.29
2022-07-29T04:39:25.915Z,16.27
2022-07-29T04:41:57.583Z,16.25
2022-07-29T04:44:28.907Z,16.23
2022-07-29T04:46:58.193Z,16.22
2022-07-29T04:49:26.590Z,16.22
2022-07-29T04:51:54.837Z,16.22
2022-07-29T04:54:22.916Z,16.23
2022-07-29T04:56:52.338Z,16.25
2022-07-29T04:59:20.335Z,16.27
2022-07-29T05:01:48.473Z,16.27
2022-07-29T05:04:16.917Z,16.28
2022-07-29T05:06:45.252Z,16.27
2022-07-29T05:09:13.368Z,16.26
2022-07-29T05:11:41.463Z,16.22
2022-07-29T05:14:10.858Z,16.20
2022-07-29T05:16:40.203Z,16.18
2022-07-29T05:19:12.265Z,16.16
2022-07-29T05:21:42.304Z,16.14
2022-07-29T05:24:10.513Z,16.13
2022-07-29T05:26:38.537Z,16.13
2022-07-29T05:29:06.580Z,16.13
2022-07-29T05:31:36.004Z,16.13
2022-07-29T05:34:04.032Z,16.13
2022-07-29T05:36:32.252Z,16.15
2022-07-29T05:39:00.301Z,16.19
2022-07-29T05:41:28.527Z,16.23
2022-07-29T05:43:56.565Z,16.25
2022-07-29T05:46:24.708Z,16.28
2022-07-29T05:48:54.240Z,16.31
2022-07-29T05:51:22.305Z,16.33
2022-07-29T05:53:50.378Z,16.39
2022-07-29T05:56:18.410Z,16.44
2022-07-29T05:58:46.425Z,16.49
2022-07-29T06:01:14.470Z,16.55
2022-07-29T06:03:42.930Z,16.58
2022-07-29T06:06:12.414Z,16.63
2022-07-29T06:08:41.277Z,16.63
2022-07-29T06:11:09.601Z,16.64
2022-07-29T06:13:37.669Z,16.65
2022-07-29T06:16:06.289Z,16.64
2022-07-29T06:18:34.254Z,16.64
2022-07-29T06:21:02.227Z,16.63
2022-07-29T06:23:31.593Z,16.65
2022-07-29T06:25:59.543Z,16.69
2022-07-29T06:28:27.538Z,16.71
2022-07-29T06:30:55.634Z,16.74
2022-07-29T06:33:23.907Z,16.76
2022-07-29T06:35:53.553Z,16.79
2022-07-29T06:38:31.461Z,16.89
2022-07-29T06:41:04.781Z,17.01
2022-07-29T06:43:50.698Z,17.11
2022-07-29T06:46:22.353Z,17.21
2022-07-29T06:48:50.815Z,17.30
2022-07-29T06:51:22.713Z,17.39
2022-07-29T06:53:59.397Z,17.49
2022-07-29T06:56:39.352Z,17.60
2022-07-29T06:59:08.065Z,17.77
2022-07-29T07:01:37.061Z,17.88
2022-07-29T07:04:05.300Z,17.94
2022-07-29T07:06:33.271Z,18.01
2022-07-29T07:09:01.291Z,18.11
2022-07-29T07:11:29.425Z,18.23
2022-07-29T07:14:02.972Z,18.40
2022-07-29T07:16:31.996Z,18.54
2022-07-29T07:19:00.223Z,18.65
2022-07-29T07:21:30.334Z,18.69
2022-07-29T07:23:58.859Z,18.73
2022-07-29T07:26:27.306Z,18.68
2022-07-29T07:28:55.481Z,18.63
2022-07-29T07:31:25.023Z,18.62
2022-07-29T07:33:54.512Z,18.71
2022-07-29T07:36:22.909Z,18.82
2022-07-29T07:38:51.198Z,18.93
2022-07-29T07:41:19.471Z,19.03
2022-07-29T07:43:47.551Z,19.13
2022-07-29T07:46:15.951Z,19.19
2022-07-29T07:48:45.684Z,19.22
2022-07-29T07:51:13.893Z,19.30
2022-07-29T07:53:41.917Z,19.39
2022-07-29T07:56:11.732Z,19.40
2022-07-29T07:58:40.713Z,19.37
2022-07-29T08:01:09.365Z,19.30
2022-07-29T08:03:37.924Z,19.21
2022-07-29T08:06:07.699Z,19.16
2022-07-29T08:08:35.859Z,19.11
2022-07-29T08:11:09.069Z,19.12
2022-07-29T08:13:38.817Z,19.21
2022-07-29T08:16:13.850Z,19.35
2022-07-29T08:18:43.813Z,19.51
2022-07-29T08:21:15.158Z,19.56
2022-07-29T08:23:57.590Z,19.61
2022-07-29T08:26:27.834Z,19.68
2022-07-29T08:28:55.931Z,19.75
2022-07-29T08:31:24.067Z,19.79
2022-07-29T08:33:52.146Z,19.81
2022-07-29T08:36:23.032Z,19.82
2022-07-29T08:38:51.955Z,19.85
2022-07-29T08:41:21.010Z,19.98
2022-07-29T08:43:49.646Z,20.19
2022-07-29T08:46:18.545Z,20.38
2022-07-29T08:48:46.775Z,20.59
2022-07-29T08:51:16.220Z,20.79
2022-07-29T08:53:48.406Z,20.97
2022-07-29T08:56:17.815Z,21.12
2022-07-29T08:58:48.753Z,21.22
2022-07-29T09:01:36.288Z,21.29
2022-07-29T09:04:13.819Z,21.32
2022-07-29T09:06:46.932Z,21.38
2022-07-29T09:09:17.004Z,21.43
2022-07-29T09:11:45.446Z,21.50
2022-07-29T09:14:15.471Z,21.56
2022-07-29T09:16:53.487Z,21.63
2022-07-29T09:19:27.032Z,21.73
2022-07-29T09:22:03.224Z,21.83
2022-07-29T09:24:45.452Z,21.92
2022-07-29T09:27:22.305Z,21.97
2022-07-29T09:29:58.517Z,22.04
2022-07-29T09:32:27.243Z,22.08
2022-07-29T09:35:16.153Z,22.17
2022-07-29T09:37:44.460Z,22.25
2022-07-29T09:40:19.697Z,22.33
2022-07-29T09:42:48.521Z,22.41
2022-07-29T09:45:29.746Z,22.51
2022-07-29T09:48:00.068Z,22.64
2022-07-29T09:50:38.087Z,22.74
2022-07-29T09:53:06.083Z,22.86
2022-07-29T09:55:47.761Z,22.93
2022-07-29T09:58:19.440Z,22.99
2022-07-29T10:00:49.508Z,23.00
2022-07-29T10:03:18.367Z,23.01
2022-07-29T10:05:48.073Z,22.98
2022-07-29T10:08:16.208Z,23.00
2022-07-29T10:10:45.679Z,23.07
2022-07-29T10:13:16.610Z,23.14
2022-07-29T10:15:47.304Z,23.17
2022-07-29T10:18:18.435Z,23.21
2022-07-29T10:20:46.736Z,23.12
2022-07-29T10:23:14.985Z,23.03
2022-07-29T10:25:46.217Z,23.08
2022-07-29T10:28:16.924Z,23.12
2022-07-29T10:30:46.816Z,23.10
2022-07-29T10:33:34.570Z,23.10
2022-07-29T10:36:12.547Z,23.10
2022-07-29T10:38:51.265Z,23.10
2022-07-29T10:41:44.371Z,23.11
2022-07-29T10:44:23.037Z,23.14
2022-07-29T10:46:52.901Z,23.10
2022-07-29T10:49:25.034Z,23.02
2022-07-29T10:51:58.663Z,22.93
2022-07-29T10:54:52.007Z,22.89
2022-07-29T10:57:25.762Z,22.87
2022-07-29T11:00:34.897Z,22.88
2022-07-29T11:03:04.839Z,22.85
2022-07-29T11:05:56.182Z,22.85
2022-07-29T11:08:28.183Z,22.87
2022-07-29T11:11:39.579Z,22.97
2022-07-29T11:14:12.325Z,23.10
2022-07-29T11:17:06.465Z,23.20
2022-07-29T11:22:43.115Z,23.21
2022-07-29T11:25:16.644Z,23.32
2022-07-29T11:27:46.406Z,23.27
2022-07-29T11:30:16.167Z,23.19
2022-07-29T11:32:48.725Z,23.19
2022-07-29T11:35:37.524Z,23.25
2022-07-29T11:38:27.657Z,23.08
2022-07-29T11:41:25.133Z,22.96
2022-07-29T11:43:54.703Z,22.81
2022-07-29T11:46:46.290Z,22.99
2022-07-29T11:49:22.118Z,23.03
2022-07-29T11:52:02.658Z,23.03
2022-07-29T11:54:57.430Z,23.11
2022-07-29T11:57:36.798Z,23.39
2022-07-29T12:00:12.187Z,23.64
2022-07-29T12:02:43.135Z,23.96
2022-07-29T12:05:13.067Z,24.16
2022-07-29T12:07:46.000Z,24.24
2022-07-29T12:10:19.907Z,24.25
2022-07-29T12:12:57.677Z,24.37
2022-07-29T12:15:39.285Z,24.41
2022-07-29T12:18:19.533Z,24.48
2022-07-29T12:20:59.405Z,24.74
2022-07-29T12:23:34.647Z,24.95
2022-07-29T12:26:07.655Z,25.12
2022-07-29T12:28:39.844Z,25.16
2022-07-29T12:31:14.780Z,25.16
2022-07-29T12:33:43.322Z,25.36
2022-07-29T12:36:17.394Z,25.54
2022-07-29T12:38:46.554Z,25.73
2022-07-29T12:41:14.945Z,25.91
2022-07-29T12:43:54.924Z,26.15
2022-07-29T12:46:23.020Z,26.39
2022-07-29T12:48:55.820Z,26.47
2022-07-29T12:51:32.972Z,26.50
2022-07-29T12:54:09.420Z,26.37
2022-07-29T12:56:45.297Z,26.31
2022-07-29T12:59:15.926Z,26.43
2022-07-29T13:01:44.023Z,26.65
2022-07-29T13:04:12.142Z,26.77
2022-07-29T13:06:46.005Z,26.82
2022-07-29T13:09:19.333Z,26.57
2022-07-29T13:11:49.187Z,26.33
2022-07-29T13:14:33.218Z,25.96
2022-07-29T13:17:07.106Z,25.77
2022-07-29T13:19:37.406Z,25.68
2022-07-29T13:22:07.185Z,25.52
2022-07-29T13:24:35.650Z,25.42
2022-07-29T13:27:05.726Z,25.25
2022-07-29T13:29:34.374Z,25.17
2022-07-29T13:32:02.576Z,25.10
2022-07-29T13:34:30.547Z,25.16
2022-07-29T13:36:58.510Z,25.24
2022-07-29T13:39:27.884Z,25.32
2022-07-29T13:41:56.270Z,25.46
2022-07-29T13:44:25.611Z,25.70
2022-07-29T13:46:53.651Z,26.02
2022-07-29T13:49:21.724Z,26.29
2022-07-29T13:51:49.768Z,26.46
2022-07-29T13:54:17.739Z,26.52
2022-07-29T13:56:47.134Z,26.48
2022-07-29T13:59:15.249Z,26.54
2022-07-29T14:01:43.607Z,26.48
2022-07-29T14:04:13.907Z,26.38
2022-07-29T14:06:41.909Z,26.35
2022-07-29T14:09:10.216Z,26.34
2022-07-29T14:11:39.415Z,26.23
2022-07-29T14:14:09.047Z,26.21
2022-07-29T14:16:40.665Z,26.34
2022-07-29T14:19:14.003Z,26.38
2022-07-29T14:21:42.159Z,26.31
2022-07-29T14:24:17.856Z,26.30
2022-07-29T14:26:49.682Z,26.29
2022-07-29T14:29:19.140Z,26.32
2022-07-29T14:31:47.201Z,26.29
2022-07-29T14:34:16.468Z,26.12
2022-07-29T14:36:44.740Z,26.14
2022-07-29T14:39:13.026Z,26.12
2022-07-29T14:41:40.971Z,25.96
2022-07-29T14:44:08.951Z,25.86
2022-07-29T14:46:38.345Z,25.89
2022-07-29T14:49:07.650Z,25.67
2022-07-29T14:51:38.181Z,25.55
2022-07-29T14:54:08.403Z,25.36
2022-07-29T14:56:37.493Z,25.05
2022-07-29T14:59:06.877Z,25.01
2022-07-29T15:01:34.954Z,24.93
2022-07-29T15:04:04.432Z,24.78
2022-07-29T15:06:37.379Z,24.75
2022-07-29T15:09:05.604Z,24.78
2022-07-29T15:11:38.482Z,24.84
2022-07-29T15:14:06.799Z,24.83
2022-07-29T15:16:35.281Z,24.98
2022-07-29T15:19:04.855Z,25.18
2022-07-29T15:21:32.926Z,25.37
2022-07-29T15:24:01.004Z,25.73
2022-07-29T15:26:29.064Z,25.71
2022-07-29T15:28:57.661Z,25.71
2022-07-29T15:31:25.757Z,25.72
2022-07-29T15:33:58.069Z,25.64
2022-07-29T15:36:51.031Z,25.64
2022-07-29T15:39:16.913Z,25.58
2022-07-29T15:41:45.032Z,25.70
2022-07-29T15:44:13.012Z,25.78
2022-07-29T15:46:58.846Z,25.87
2022-07-29T15:49:47.945Z,25.75
2022-07-29T15:52:25.968Z,25.58
2022-07-29T15:54:54.969Z,25.72
2022-07-29T15:57:23.423Z,25.89
2022-07-29T15:59:51.958Z,26.10
2022-07-29T16:02:20.240Z,26.33
2022-07-29T16:04:48.419Z,26.55
2022-07-29T16:07:18.072Z,26.93
2022-07-29T16:09:50.733Z,27.05
2022-07-29T16:12:20.879Z,26.89
2022-07-29T16:14:49.511Z,26.75
2022-07-29T16:17:17.798Z,26.54
2022-07-29T16:19:46.675Z,26.37
2022-07-29T16:22:15.079Z,26.43
2022-07-29T16:24:44.612Z,26.29
2022-07-29T16:27:12.623Z,26.41
2022-07-29T16:29:40.680Z,26.50
2022-07-29T16:32:08.758Z,26.38
2022-07-29T16:34:36.846Z,26.28
2022-07-29T16:37:05.385Z,26.34
2022-07-29T16:39:34.055Z,26.40
2022-07-29T16:42:05.431Z,26.22
2022-07-29T16:44:35.355Z,26.27
2022-07-29T16:47:04.295Z,26.02
2022-07-29T16:49:32.655Z,25.68
2022-07-29T16:52:00.671Z,25.56
2022-07-29T16:54:29.091Z,25.45
2022-07-29T16:56:57.489Z,25.20
2022-07-29T16:59:27.150Z,25.01
2022-07-29T17:01:55.267Z,24.90
2022-07-29T17:04:23.392Z,24.81
2022-07-29T17:06:52.524Z,24.76
2022-07-29T17:09:21.830Z,24.62
2022-07-29T17:11:54.999Z,24.57
2022-07-29T17:14:25.665Z,24.60
2022-07-29T17:17:00.675Z,24.68
2022-07-29T17:19:30.931Z,24.96
2022-07-29T17:22:07.055Z,25.20
2022-07-29T17:24:37.260Z,25.49
2022-07-29T17:27:06.389Z,25.71
2022-07-29T17:29:35.025Z,25.65
2022-07-29T17:32:08.250Z,25.52
2022-07-29T17:34:36.676Z,25.36
2022-07-29T17:37:05.608Z,25.29
2022-07-29T17:39:35.193Z,25.26
2022-07-29T17:42:03.600Z,25.32
2022-07-29T17:44:32.419Z,25.50
2022-07-29T17:47:06.584Z,25.93
2022-07-29T17:49:37.955Z,26.37
2022-07-29T17:52:06.748Z,26.63
2022-07-29T17:54:34.831Z,26.86
2022-07-29T17:57:02.857Z,27.07
2022-07-29T17:59:30.891Z,27.10
2022-07-29T18:01:58.978Z,26.92
2022-07-29T18:04:29.200Z,26.47
2022-07-29T18:06:57.602Z,26.06
2022-07-29T18:09:25.910Z,25.60
2022-07-29T18:11:53.991Z,25.22
2022-07-29T18:14:22.053Z,24.82
2022-07-29T18:16:50.222Z,24.52
2022-07-29T18:19:18.313Z,24.24
2022-07-29T18:21:54.583Z,23.88
2022-07-29T18:24:25.415Z,23.60
2022-07-29T18:26:53.993Z,23.42
2022-07-29T18:29:22.112Z,23.23
2022-07-29T18:31:50.416Z,23.10
2022-07-29T18:34:18.605Z,23.02
2022-07-29T18:36:48.175Z,22.90
2022-07-29T18:39:20.268Z,22.82
2022-07-29T18:41:51.196Z,22.80
2022-07-29T18:44:21.850Z,22.71
2022-07-29T18:46:51.326Z,22.68
2022-07-29T18:49:19.547Z,22.65
2022-07-29T18:51:49.433Z,22.51
2022-07-29T18:54:18.483Z,22.41
2022-07-29T18:56:47.579Z,22.33
2022-07-29T18:59:16.955Z,22.27
2022-07-29T19:01:45.540Z,22.22
2022-07-29T19:04:13.688Z,22.15
2022-07-29T19:06:41.842Z,22.01
2022-07-29T19:09:11.527Z,21.92
2022-07-29T19:11:40.571Z,21.85
2022-07-29T19:14:11.283Z,21.75
2022-07-29T19:16:39.296Z,21.68
2022-07-29T19:19:08.798Z,21.60
2022-07-29T19:21:37.030Z,21.56
2022-07-29T19:24:08.541Z,21.48
2022-07-29T19:26:46.515Z,21.37
2022-07-29T19:29:15.034Z,21.28
2022-07-29T19:31:43.766Z,21.22
2022-07-29T19:34:11.809Z,21.18
2022-07-29T19:36:46.321Z,21.13
2022-07-29T19:39:15.413Z,21.06
2022-07-29T19:41:44.948Z,20.99
2022-07-29T19:44:13.643Z,20.93
2022-07-29T19:46:41.758Z,20.88
2022-07-29T19:49:10.228Z,20.83
2022-07-29T19:51:38.347Z,20.79
2022-07-29T19:54:07.103Z,20.76
2022-07-29T19:56:39.987Z,20.73
2022-07-29T19:59:11.664Z,20.68
2022-07-29T20:01:41.077Z,20.64
2022-07-29T20:04:09.132Z,20.59
2022-07-29T20:06:37.267Z,20.55
2022-07-29T20:09:06.125Z,20.50
2022-07-29T20:11:36.712Z,20.47
2022-07-29T20:14:06.055Z,20.44
2022-07-29T20:16:35.601Z,20.41
2022-07-29T20:19:03.625Z,20.35
2022-07-29T20:21:33.902Z,20.32
2022-07-29T20:24:02.439Z,20.28
2022-07-29T20:26:30.455Z,20.25
2022-07-29T20:28:58.881Z,20.21
2022-07-29T20:31:27.716Z,20.18
2022-07-29T20:33:57.177Z,20.16
2022-07-29T20:36:25.393Z,20.12
2022-07-29T20:38:53.440Z,20.08
2022-07-29T20:41:21.503Z,20.07
2022-07-29T20:43:49.789Z,20.06
2022-07-29T20:46:18.917Z,20.05
2022-07-29T20:48:47.907Z,20.04
2022-07-29T20:51:17.404Z,20.01
2022-07-29T20:53:45.455Z,20.00
2022-07-29T20:56:13.666Z,19.99
2022-07-29T20:58:42.739Z,19.96
2022-07-29T21:01:11.382Z,19.95
2022-07-29T21:03:39.974Z,19.95
2022-07-29T21:06:09.151Z,19.94
2022-07-29T21:08:39.027Z,19.91
2022-07-29T21:11:07.232Z,19.90
2022-07-29T21:13:38.425Z,19.87
2022-07-29T21:16:14.808Z,19.84
2022-07-29T21:18:46.062Z,19.82
2022-07-29T21:21:15.361Z,19.79
2022-07-29T21:23:46.007Z,19.74
2022-07-29T21:26:14.189Z,19.69
2022-07-29T21:28:41.170Z,19.66
2022-07-29T21:31:12.559Z,19.64
2022-07-29T21:33:42.722Z,19.61
2022-07-29T21:36:45.411Z,19.60
2022-07-29T21:39:06.850Z,19.57
2022-07-29T21:41:35.455Z,19.53
2022-07-29T21:44:03.543Z,19.49
2022-07-29T21:46:31.615Z,19.45
2022-07-29T21:48:59.774Z,19.41
2022-07-29T21:51:27.907Z,19.39
2022-07-29T21:53:55.934Z,19.37
2022-07-29T21:56:27.757Z,19.36
2022-07-29T21:58:56.094Z,19.33
2022-07-29T22:01:24.863Z,19.32
2022-07-29T22:03:52.992Z,19.32
2022-07-29T22:06:21.515Z,19.30
2022-07-29T22:08:49.511Z,19.28
2022-07-29T22:11:17.528Z,19.25
2022-07-29T22:13:49.669Z,19.22
2022-07-29T22:16:17.690Z,19.20
2022-07-29T22:18:46.936Z,19.15
2022-07-29T22:21:15.205Z,19.12
2022-07-29T22:23:43.237Z,19.08
2022-07-29T22:26:11.275Z,19.01
2022-07-29T22:28:39.353Z,18.97
2022-07-29T22:31:10.076Z,18.95
2022-07-29T22:33:38.795Z,18.90
2022-07-29T22:36:07.505Z,18.85
2022-07-29T22:38:36.380Z,18.79
2022-07-29T22:41:04.422Z,18.76
2022-07-29T22:43:32.420Z,18.73
2022-07-29T22:46:00.586Z,18.71
2022-07-29T22:48:30.133Z,18.69
2022-07-29T22:50:58.156Z,18.67
2022-07-29T22:53:26.229Z,18.64
2022-07-29T22:55:54.655Z,18.61
2022-07-29T22:58:22.669Z,18.57
2022-07-29T23:00:50.735Z,18.54
2022-07-29T23:03:18.849Z,18.51
2022-07-29T23:05:48.291Z,18.50
2022-07-29T23:08:16.287Z,18.50
2022-07-29T23:10:44.270Z,18.48
2022-07-29T23:13:12.317Z,18.44
2022-07-29T23:15:40.419Z,18.41
2022-07-29T23:18:08.429Z,18.41
2022-07-29T23:20:37.025Z,18.38
2022-07-29T23:23:06.533Z,18.33
2022-07-29T23:25:34.554Z,18.30
2022-07-29T23:28:02.693Z,18.24
2022-07-29T23:30:30.971Z,18.21
2022-07-29T23:32:59.020Z,18.19
2022-07-29T23:35:27.067Z,18.16
2022-07-29T23:37:55.078Z,18.16
2022-07-29T23:40:24.646Z,18.15
2022-07-29T23:42:52.667Z,18.16
2022-07-29T23:45:20.588Z,18.15
2022-07-29T23:47:48.582Z,18.15
2022-07-29T23:50:16.876Z,18.14
2022-07-29T23:52:45.542Z,18.12
2022-07-29T23:55:36.766Z,18.12
2022-07-29T23:58:04.175Z,18.07
